sensor_id;sensor_type;location;lat;lon;timestamp;P1;durP1;ratioP1;P2;durP2;ratioP2
11203;SDS011;5659;49.408;11.116;2023-04-25T00:01:39;5.13;;;4.63;;
11203;SDS011;5659;49.408;11.116;2023-04-25T00:04:05;5.73;;;4.97;;
11203;SDS011;5659;49.408;11.116;2023-04-25T00:06:32;5.30;;;4.57;;
11203;SDS011;5659;49.408;11.116;2023-04-25T00:09:01;6.40;;;4.70;;
11203;SDS011;5659;49.408;11.116;2023-04-25T00:11:27;4.73;;;4.33;;
11203;SDS011;5659;49.408;11.116;2023-04-25T00:13:53;5.63;;;4.57;;
11203;SDS011;5659;49.408;11.116;2023-04-25T00:16:19;5.33;;;4.40;;
11203;SDS011;5659;49.408;11.116;2023-04-25T00:18:45;6.13;;;5.07;;
11203;SDS011;5659;49.408;11.116;2023-04-25T00:21:16;6.60;;;4.80;;
11203;SDS011;5659;49.408;11.116;2023-04-25T00:23:43;8.60;;;4.47;;
11203;SDS011;5659;49.408;11.116;2023-04-25T00:26:10;8.00;;;4.50;;
11203;SDS011;5659;49.408;11.116;2023-04-25T00:28:36;5.20;;;4.50;;
11203;SDS011;5659;49.408;11.116;2023-04-25T00:31:03;4.90;;;4.40;;
11203;SDS011;5659;49.408;11.116;2023-04-25T00:33:29;6.73;;;4.20;;
11203;SDS011;5659;49.408;11.116;2023-04-25T00:35:55;5.00;;;4.40;;
11203;SDS011;5659;49.408;11.116;2023-04-25T00:38:21;6.50;;;5.00;;
11203;SDS011;5659;49.408;11.116;2023-04-25T00:40:47;5.00;;;4.50;;
11203;SDS011;5659;49.408;11.116;2023-04-25T00:43:13;6.70;;;4.53;;
11203;SDS011;5659;49.408;11.116;2023-04-25T00:45:39;9.40;;;5.13;;
11203;SDS011;5659;49.408;11.116;2023-04-25T00:48:06;5.70;;;5.00;;
11203;SDS011;5659;49.408;11.116;2023-04-25T00:50:35;7.93;;;4.90;;
11203;SDS011;5659;49.408;11.116;2023-04-25T00:53:01;6.67;;;5.03;;
11203;SDS011;5659;49.408;11.116;2023-04-25T00:55:28;7.40;;;5.47;;
11203;SDS011;5659;49.408;11.116;2023-04-25T00:57:54;5.70;;;5.07;;
11203;SDS011;5659;49.408;11.116;2023-04-25T01:00:20;6.57;;;4.80;;
11203;SDS011;5659;49.408;11.116;2023-04-25T01:02:46;7.20;;;4.90;;
11203;SDS011;5659;49.408;11.116;2023-04-25T01:05:13;5.97;;;5.17;;
11203;SDS011;5659;49.408;11.116;2023-04-25T01:07:39;5.77;;;5.03;;
11203;SDS011;5659;49.408;11.116;2023-04-25T01:10:06;6.40;;;5.07;;
11203;SDS011;5659;49.408;11.116;2023-04-25T01:12:32;6.00;;;4.53;;
11203;SDS011;5659;49.408;11.116;2023-04-25T01:14:58;5.30;;;4.70;;
11203;SDS011;5659;49.408;11.116;2023-04-25T01:17:24;6.50;;;4.60;;
11203;SDS011;5659;49.408;11.116;2023-04-25T01:19:50;4.90;;;4.40;;
11203;SDS011;5659;49.408;11.116;2023-04-25T01:22:16;6.03;;;4.83;;
11203;SDS011;5659;49.408;11.116;2023-04-25T01:24:42;4.77;;;4.13;;
11203;SDS011;5659;49.408;11.116;2023-04-25T01:27:09;5.20;;;4.70;;
11203;SDS011;5659;49.408;11.116;2023-04-25T01:29:35;4.80;;;4.30;;
11203;SDS011;5659;49.408;11.116;2023-04-25T01:32:01;6.27;;;5.53;;
11203;SDS011;5659;49.408;11.116;2023-04-25T01:34:28;5.80;;;4.73;;
11203;SDS011;5659;49.408;11.116;2023-04-25T01:36:54;8.23;;;4.83;;
11203;SDS011;5659;49.408;11.116;2023-04-25T01:39:20;6.47;;;5.30;;
11203;SDS011;5659;49.408;11.116;2023-04-25T01:41:46;7.03;;;4.87;;
11203;SDS011;5659;49.408;11.116;2023-04-25T01:44:13;5.80;;;4.93;;
11203;SDS011;5659;49.408;11.116;2023-04-25T01:46:39;5.37;;;4.87;;
11203;SDS011;5659;49.408;11.116;2023-04-25T01:49:05;6.97;;;5.20;;
11203;SDS011;5659;49.408;11.116;2023-04-25T01:51:31;5.40;;;4.77;;
11203;SDS011;5659;49.408;11.116;2023-04-25T01:53:58;6.57;;;4.70;;
11203;SDS011;5659;49.408;11.116;2023-04-25T01:56:24;6.30;;;4.67;;
11203;SDS011;5659;49.408;11.116;2023-04-25T01:58:50;8.83;;;5.13;;
11203;SDS011;5659;49.408;11.116;2023-04-25T02:01:17;6.83;;;4.77;;
11203;SDS011;5659;49.408;11.116;2023-04-25T02:03:43;6.20;;;4.63;;
11203;SDS011;5659;49.408;11.116;2023-04-25T02:06:09;6.33;;;4.73;;
11203;SDS011;5659;49.408;11.116;2023-04-25T02:08:35;8.13;;;5.47;;
11203;SDS011;5659;49.408;11.116;2023-04-25T02:11:02;7.70;;;4.90;;
11203;SDS011;5659;49.408;11.116;2023-04-25T02:13:28;7.57;;;5.67;;
11203;SDS011;5659;49.408;11.116;2023-04-25T02:15:54;8.13;;;6.10;;
11203;SDS011;5659;49.408;11.116;2023-04-25T02:18:20;7.63;;;5.90;;
11203;SDS011;5659;49.408;11.116;2023-04-25T02:20:46;9.13;;;6.13;;
11203;SDS011;5659;49.408;11.116;2023-04-25T02:23:12;7.00;;;6.00;;
11203;SDS011;5659;49.408;11.116;2023-04-25T02:25:40;7.90;;;6.30;;
11203;SDS011;5659;49.408;11.116;2023-04-25T02:28:06;8.07;;;6.73;;
11203;SDS011;5659;49.408;11.116;2023-04-25T02:30:32;8.73;;;7.20;;
11203;SDS011;5659;49.408;11.116;2023-04-25T02:32:58;7.90;;;7.03;;
11203;SDS011;5659;49.408;11.116;2023-04-25T02:35:24;9.47;;;6.80;;
11203;SDS011;5659;49.408;11.116;2023-04-25T02:37:50;10.87;;;7.20;;
11203;SDS011;5659;49.408;11.116;2023-04-25T02:40:15;10.40;;;7.50;;
11203;SDS011;5659;49.408;11.116;2023-04-25T02:42:41;9.63;;;7.50;;
11203;SDS011;5659;49.408;11.116;2023-04-25T02:45:08;8.57;;;6.97;;
11203;SDS011;5659;49.408;11.116;2023-04-25T02:47:34;10.07;;;7.37;;
11203;SDS011;5659;49.408;11.116;2023-04-25T02:50:00;9.10;;;7.13;;
11203;SDS011;5659;49.408;11.116;2023-04-25T02:52:26;8.70;;;7.53;;
11203;SDS011;5659;49.408;11.116;2023-04-25T02:54:52;9.90;;;7.30;;
11203;SDS011;5659;49.408;11.116;2023-04-25T02:57:18;8.57;;;7.77;;
11203;SDS011;5659;49.408;11.116;2023-04-25T02:59:44;9.03;;;7.67;;
11203;SDS011;5659;49.408;11.116;2023-04-25T03:02:10;10.97;;;7.40;;
11203;SDS011;5659;49.408;11.116;2023-04-25T03:04:35;8.57;;;7.47;;
11203;SDS011;5659;49.408;11.116;2023-04-25T03:07:01;9.43;;;7.27;;
11203;SDS011;5659;49.408;11.116;2023-04-25T03:09:27;15.60;;;8.67;;
11203;SDS011;5659;49.408;11.116;2023-04-25T03:11:53;8.73;;;7.27;;
11203;SDS011;5659;49.408;11.116;2023-04-25T03:14:19;9.07;;;7.20;;
11203;SDS011;5659;49.408;11.116;2023-04-25T03:16:45;9.07;;;7.07;;
11203;SDS011;5659;49.408;11.116;2023-04-25T03:19:11;8.80;;;7.17;;
11203;SDS011;5659;49.408;11.116;2023-04-25T03:21:37;7.67;;;6.87;;
11203;SDS011;5659;49.408;11.116;2023-04-25T03:24:04;8.90;;;7.40;;
11203;SDS011;5659;49.408;11.116;2023-04-25T03:26:30;9.50;;;7.00;;
11203;SDS011;5659;49.408;11.116;2023-04-25T03:28:56;7.93;;;7.13;;
11203;SDS011;5659;49.408;11.116;2023-04-25T03:31:23;7.90;;;7.10;;
11203;SDS011;5659;49.408;11.116;2023-04-25T03:33:49;8.53;;;6.90;;
11203;SDS011;5659;49.408;11.116;2023-04-25T03:36:15;8.23;;;6.87;;
11203;SDS011;5659;49.408;11.116;2023-04-25T03:38:41;8.83;;;7.57;;
11203;SDS011;5659;49.408;11.116;2023-04-25T03:41:07;9.30;;;7.30;;
11203;SDS011;5659;49.408;11.116;2023-04-25T03:43:33;9.77;;;7.40;;
11203;SDS011;5659;49.408;11.116;2023-04-25T03:45:59;8.63;;;7.13;;
11203;SDS011;5659;49.408;11.116;2023-04-25T03:48:26;8.83;;;6.90;;
11203;SDS011;5659;49.408;11.116;2023-04-25T03:50:52;10.47;;;7.10;;
11203;SDS011;5659;49.408;11.116;2023-04-25T03:53:18;10.07;;;6.80;;
11203;SDS011;5659;49.408;11.116;2023-04-25T03:55:44;8.50;;;7.17;;
11203;SDS011;5659;49.408;11.116;2023-04-25T03:58:10;8.63;;;6.63;;
11203;SDS011;5659;49.408;11.116;2023-04-25T04:00:36;9.97;;;6.87;;
11203;SDS011;5659;49.408;11.116;2023-04-25T04:03:02;8.33;;;7.00;;
11203;SDS011;5659;49.408;11.116;2023-04-25T04:05:28;7.57;;;6.30;;
11203;SDS011;5659;49.408;11.116;2023-04-25T04:07:54;7.70;;;6.40;;
11203;SDS011;5659;49.408;11.116;2023-04-25T04:10:20;8.90;;;7.10;;
11203;SDS011;5659;49.408;11.116;2023-04-25T04:12:46;9.50;;;7.07;;
11203;SDS011;5659;49.408;11.116;2023-04-25T04:15:12;7.50;;;6.20;;
11203;SDS011;5659;49.408;11.116;2023-04-25T04:17:39;9.67;;;6.93;;
11203;SDS011;5659;49.408;11.116;2023-04-25T04:20:06;9.37;;;6.47;;
11203;SDS011;5659;49.408;11.116;2023-04-25T04:22:33;10.33;;;6.83;;
11203;SDS011;5659;49.408;11.116;2023-04-25T04:24:59;9.73;;;6.27;;
11203;SDS011;5659;49.408;11.116;2023-04-25T04:27:25;10.30;;;6.60;;
11203;SDS011;5659;49.408;11.116;2023-04-25T04:29:51;7.73;;;5.97;;
11203;SDS011;5659;49.408;11.116;2023-04-25T04:32:18;8.23;;;5.70;;
11203;SDS011;5659;49.408;11.116;2023-04-25T04:34:44;10.50;;;5.80;;
11203;SDS011;5659;49.408;11.116;2023-04-25T04:37:12;8.43;;;6.87;;
11203;SDS011;5659;49.408;11.116;2023-04-25T04:39:38;8.80;;;5.57;;
11203;SDS011;5659;49.408;11.116;2023-04-25T04:42:04;6.97;;;6.20;;
11203;SDS011;5659;49.408;11.116;2023-04-25T04:44:30;8.43;;;6.20;;
11203;SDS011;5659;49.408;11.116;2023-04-25T04:46:59;6.67;;;5.77;;
11203;SDS011;5659;49.408;11.116;2023-04-25T04:49:25;8.27;;;5.40;;
11203;SDS011;5659;49.408;11.116;2023-04-25T04:51:51;7.20;;;5.20;;
11203;SDS011;5659;49.408;11.116;2023-04-25T04:54:19;6.37;;;5.53;;
11203;SDS011;5659;49.408;11.116;2023-04-25T04:56:45;7.93;;;5.60;;
11203;SDS011;5659;49.408;11.116;2023-04-25T04:59:11;7.77;;;5.13;;
11203;SDS011;5659;49.408;11.116;2023-04-25T05:01:37;8.90;;;5.80;;
11203;SDS011;5659;49.408;11.116;2023-04-25T05:04:03;6.00;;;5.17;;
11203;SDS011;5659;49.408;11.116;2023-04-25T05:06:29;9.87;;;6.50;;
11203;SDS011;5659;49.408;11.116;2023-04-25T05:08:56;14.83;;;6.10;;
11203;SDS011;5659;49.408;11.116;2023-04-25T05:11:22;9.20;;;6.13;;
11203;SDS011;5659;49.408;11.116;2023-04-25T05:13:49;7.83;;;6.67;;
11203;SDS011;5659;49.408;11.116;2023-04-25T05:16:15;9.20;;;6.90;;
11203;SDS011;5659;49.408;11.116;2023-04-25T05:18:41;8.13;;;6.50;;
11203;SDS011;5659;49.408;11.116;2023-04-25T05:21:07;9.63;;;6.93;;
11203;SDS011;5659;49.408;11.116;2023-04-25T05:23:33;13.03;;;8.20;;
11203;SDS011;5659;49.408;11.116;2023-04-25T05:25:59;10.27;;;7.80;;
11203;SDS011;5659;49.408;11.116;2023-04-25T05:28:25;10.57;;;7.50;;
11203;SDS011;5659;49.408;11.116;2023-04-25T05:30:51;8.30;;;7.00;;
11203;SDS011;5659;49.408;11.116;2023-04-25T05:33:17;12.13;;;8.13;;
11203;SDS011;5659;49.408;11.116;2023-04-25T05:35:44;12.20;;;7.83;;
11203;SDS011;5659;49.408;11.116;2023-04-25T05:38:10;8.73;;;7.80;;
11203;SDS011;5659;49.408;11.116;2023-04-25T05:40:36;8.30;;;6.73;;
11203;SDS011;5659;49.408;11.116;2023-04-25T05:43:02;8.27;;;6.97;;
11203;SDS011;5659;49.408;11.116;2023-04-25T05:45:28;9.50;;;7.53;;
11203;SDS011;5659;49.408;11.116;2023-04-25T05:47:54;8.43;;;7.47;;
11203;SDS011;5659;49.408;11.116;2023-04-25T05:50:20;10.27;;;7.17;;
11203;SDS011;5659;49.408;11.116;2023-04-25T05:52:46;9.40;;;7.77;;
11203;SDS011;5659;49.408;11.116;2023-04-25T05:55:12;10.60;;;7.87;;
11203;SDS011;5659;49.408;11.116;2023-04-25T05:57:38;8.67;;;7.77;;
11203;SDS011;5659;49.408;11.116;2023-04-25T06:00:10;11.27;;;7.10;;
11203;SDS011;5659;49.408;11.116;2023-04-25T06:02:36;7.97;;;7.00;;
11203;SDS011;5659;49.408;11.116;2023-04-25T06:05:02;9.83;;;7.57;;
11203;SDS011;5659;49.408;11.116;2023-04-25T06:07:28;10.23;;;8.03;;
11203;SDS011;5659;49.408;11.116;2023-04-25T06:09:57;9.67;;;7.70;;
11203;SDS011;5659;49.408;11.116;2023-04-25T06:12:25;8.97;;;7.90;;
11203;SDS011;5659;49.408;11.116;2023-04-25T06:14:51;9.57;;;7.50;;
11203;SDS011;5659;49.408;11.116;2023-04-25T06:17:17;12.47;;;7.70;;
11203;SDS011;5659;49.408;11.116;2023-04-25T06:19:42;8.70;;;7.33;;
11203;SDS011;5659;49.408;11.116;2023-04-25T06:22:08;10.10;;;6.93;;
11203;SDS011;5659;49.408;11.116;2023-04-25T06:24:34;8.00;;;7.07;;
11203;SDS011;5659;49.408;11.116;2023-04-25T06:27:00;9.00;;;7.63;;
11203;SDS011;5659;49.408;11.116;2023-04-25T06:29:26;9.63;;;7.50;;
11203;SDS011;5659;49.408;11.116;2023-04-25T06:31:52;9.33;;;7.03;;
11203;SDS011;5659;49.408;11.116;2023-04-25T06:34:18;8.33;;;7.50;;
11203;SDS011;5659;49.408;11.116;2023-04-25T06:36:44;10.60;;;7.73;;
11203;SDS011;5659;49.408;11.116;2023-04-25T06:39:10;7.60;;;6.90;;
11203;SDS011;5659;49.408;11.116;2023-04-25T06:41:36;9.30;;;7.10;;
11203;SDS011;5659;49.408;11.116;2023-04-25T06:44:03;9.33;;;7.63;;
11203;SDS011;5659;49.408;11.116;2023-04-25T06:46:28;8.57;;;7.20;;
11203;SDS011;5659;49.408;11.116;2023-04-25T06:48:54;8.70;;;7.80;;
11203;SDS011;5659;49.408;11.116;2023-04-25T06:51:21;11.03;;;7.87;;
11203;SDS011;5659;49.408;11.116;2023-04-25T06:53:47;9.80;;;8.23;;
11203;SDS011;5659;49.408;11.116;2023-04-25T06:56:12;10.57;;;8.40;;
11203;SDS011;5659;49.408;11.116;2023-04-25T06:58:38;10.30;;;7.23;;
11203;SDS011;5659;49.408;11.116;2023-04-25T07:01:04;9.87;;;7.70;;
11203;SDS011;5659;49.408;11.116;2023-04-25T07:03:30;11.97;;;7.80;;
11203;SDS011;5659;49.408;11.116;2023-04-25T07:05:56;9.50;;;8.10;;
11203;SDS011;5659;49.408;11.116;2023-04-25T07:08:22;10.83;;;8.00;;
11203;SDS011;5659;49.408;11.116;2023-04-25T07:10:48;11.40;;;7.17;;
11203;SDS011;5659;49.408;11.116;2023-04-25T07:13:14;7.80;;;6.67;;
11203;SDS011;5659;49.408;11.116;2023-04-25T07:15:40;10.70;;;6.80;;
11203;SDS011;5659;49.408;11.116;2023-04-25T07:18:07;9.73;;;7.57;;
11203;SDS011;5659;49.408;11.116;2023-04-25T07:20:33;9.20;;;7.40;;
11203;SDS011;5659;49.408;11.116;2023-04-25T07:22:59;7.93;;;6.80;;
11203;SDS011;5659;49.408;11.116;2023-04-25T07:25:25;8.77;;;6.70;;
11203;SDS011;5659;49.408;11.116;2023-04-25T07:27:51;8.60;;;7.03;;
11203;SDS011;5659;49.408;11.116;2023-04-25T07:30:17;8.37;;;6.43;;
11203;SDS011;5659;49.408;11.116;2023-04-25T07:32:43;7.27;;;6.37;;
11203;SDS011;5659;49.408;11.116;2023-04-25T07:35:10;7.43;;;6.53;;
11203;SDS011;5659;49.408;11.116;2023-04-25T07:37:36;8.50;;;6.53;;
11203;SDS011;5659;49.408;11.116;2023-04-25T07:40:02;8.17;;;6.60;;
11203;SDS011;5659;49.408;11.116;2023-04-25T07:42:31;6.80;;;6.17;;
11203;SDS011;5659;49.408;11.116;2023-04-25T07:44:57;10.17;;;5.50;;
11203;SDS011;5659;49.408;11.116;2023-04-25T07:47:23;6.80;;;4.90;;
11203;SDS011;5659;49.408;11.116;2023-04-25T07:49:49;6.30;;;5.30;;
11203;SDS011;5659;49.408;11.116;2023-04-25T07:52:15;6.30;;;5.23;;
11203;SDS011;5659;49.408;11.116;2023-04-25T07:54:41;6.23;;;5.30;;
11203;SDS011;5659;49.408;11.116;2023-04-25T07:57:07;8.57;;;5.70;;
11203;SDS011;5659;49.408;11.116;2023-04-25T07:59:33;9.73;;;5.90;;
11203;SDS011;5659;49.408;11.116;2023-04-25T08:02:00;5.23;;;4.73;;
11203;SDS011;5659;49.408;11.116;2023-04-25T08:04:26;7.73;;;5.37;;
11203;SDS011;5659;49.408;11.116;2023-04-25T08:06:52;6.17;;;4.83;;
11203;SDS011;5659;49.408;11.116;2023-04-25T08:09:21;7.57;;;5.53;;
11203;SDS011;5659;49.408;11.116;2023-04-25T08:11:47;10.17;;;6.00;;
11203;SDS011;5659;49.408;11.116;2023-04-25T08:14:13;7.97;;;6.00;;
11203;SDS011;5659;49.408;11.116;2023-04-25T08:16:39;10.97;;;6.67;;
11203;SDS011;5659;49.408;11.116;2023-04-25T08:19:05;13.33;;;6.77;;
11203;SDS011;5659;49.408;11.116;2023-04-25T08:21:31;5.40;;;4.90;;
11203;SDS011;5659;49.408;11.116;2023-04-25T08:23:57;7.67;;;4.70;;
11203;SDS011;5659;49.408;11.116;2023-04-25T08:26:24;11.13;;;5.20;;
11203;SDS011;5659;49.408;11.116;2023-04-25T08:28:50;10.23;;;4.77;;
11203;SDS011;5659;49.408;11.116;2023-04-25T08:31:16;9.77;;;4.40;;
11203;SDS011;5659;49.408;11.116;2023-04-25T08:33:42;9.37;;;4.27;;
11203;SDS011;5659;49.408;11.116;2023-04-25T08:36:10;6.60;;;5.13;;
11203;SDS011;5659;49.408;11.116;2023-04-25T08:38:36;6.33;;;4.80;;
11203;SDS011;5659;49.408;11.116;2023-04-25T08:41:02;7.70;;;4.97;;
11203;SDS011;5659;49.408;11.116;2023-04-25T08:43:28;8.47;;;4.90;;
11203;SDS011;5659;49.408;11.116;2023-04-25T08:45:57;9.60;;;4.40;;
11203;SDS011;5659;49.408;11.116;2023-04-25T08:48:25;7.20;;;4.40;;
11203;SDS011;5659;49.408;11.116;2023-04-25T08:50:53;7.67;;;4.30;;
11203;SDS011;5659;49.408;11.116;2023-04-25T08:53:21;7.33;;;4.60;;
11203;SDS011;5659;49.408;11.116;2023-04-25T08:55:47;5.50;;;4.00;;
11203;SDS011;5659;49.408;11.116;2023-04-25T08:58:14;8.80;;;4.23;;
11203;SDS011;5659;49.408;11.116;2023-04-25T09:00:40;7.70;;;5.10;;
11203;SDS011;5659;49.408;11.116;2023-04-25T09:03:06;10.90;;;5.17;;
11203;SDS011;5659;49.408;11.116;2023-04-25T09:05:33;9.40;;;5.17;;
11203;SDS011;5659;49.408;11.116;2023-04-25T09:08:00;6.50;;;4.57;;
11203;SDS011;5659;49.408;11.116;2023-04-25T09:10:26;5.93;;;4.80;;
11203;SDS011;5659;49.408;11.116;2023-04-25T09:15:46;5.97;;;5.07;;
11203;SDS011;5659;49.408;11.116;2023-04-25T09:18:13;4.90;;;4.40;;
11203;SDS011;5659;49.408;11.116;2023-04-25T09:20:42;6.82;;;4.80;;
11203;SDS011;5659;49.408;11.116;2023-04-25T09:23:08;6.90;;;5.00;;
11203;SDS011;5659;49.408;11.116;2023-04-25T09:25:35;7.47;;;5.00;;
11203;SDS011;5659;49.408;11.116;2023-04-25T09:28:05;8.77;;;6.10;;
11203;SDS011;5659;49.408;11.116;2023-04-25T09:30:34;11.17;;;6.20;;
11203;SDS011;5659;49.408;11.116;2023-04-25T09:33:04;9.07;;;5.90;;
11203;SDS011;5659;49.408;11.116;2023-04-25T09:35:34;6.60;;;5.53;;
11203;SDS011;5659;49.408;11.116;2023-04-25T09:38:01;6.33;;;4.87;;
11203;SDS011;5659;49.408;11.116;2023-04-25T09:40:32;7.43;;;5.50;;
11203;SDS011;5659;49.408;11.116;2023-04-25T09:42:58;6.30;;;5.40;;
11203;SDS011;5659;49.408;11.116;2023-04-25T09:45:24;6.43;;;5.77;;
11203;SDS011;5659;49.408;11.116;2023-04-25T09:47:50;7.47;;;5.60;;
11203;SDS011;5659;49.408;11.116;2023-04-25T09:50:22;5.93;;;4.90;;
11203;SDS011;5659;49.408;11.116;2023-04-25T09:53:10;5.77;;;5.17;;
11203;SDS011;5659;49.408;11.116;2023-04-25T09:55:36;6.38;;;4.15;;
11203;SDS011;5659;49.408;11.116;2023-04-25T09:58:05;5.60;;;4.20;;
11203;SDS011;5659;49.408;11.116;2023-04-25T10:00:34;5.63;;;4.70;;
11203;SDS011;5659;49.408;11.116;2023-04-25T10:03:01;5.55;;;4.20;;
11203;SDS011;5659;49.408;11.116;2023-04-25T10:05:30;4.80;;;4.18;;
11203;SDS011;5659;49.408;11.116;2023-04-25T10:07:58;6.78;;;4.68;;
11203;SDS011;5659;49.408;11.116;2023-04-25T10:10:25;7.40;;;4.40;;
11203;SDS011;5659;49.408;11.116;2023-04-25T10:12:53;8.02;;;4.85;;
11203;SDS011;5659;49.408;11.116;2023-04-25T10:15:19;6.78;;;4.85;;
11203;SDS011;5659;49.408;11.116;2023-04-25T10:17:46;6.70;;;5.20;;
11203;SDS011;5659;49.408;11.116;2023-04-25T10:20:13;8.77;;;5.57;;
11203;SDS011;5659;49.408;11.116;2023-04-25T10:22:39;6.30;;;4.80;;
11203;SDS011;5659;49.408;11.116;2023-04-25T10:25:07;6.10;;;4.50;;
11203;SDS011;5659;49.408;11.116;2023-04-25T10:27:34;6.72;;;4.70;;
11203;SDS011;5659;49.408;11.116;2023-04-25T10:30:04;5.63;;;4.47;;
11203;SDS011;5659;49.408;11.116;2023-04-25T10:32:31;4.85;;;4.13;;
11203;SDS011;5659;49.408;11.116;2023-04-25T10:34:58;7.07;;;4.30;;
11203;SDS011;5659;49.408;11.116;2023-04-25T10:37:35;6.95;;;4.20;;
11203;SDS011;5659;49.408;11.116;2023-04-25T10:40:07;5.60;;;3.92;;
11203;SDS011;5659;49.408;11.116;2023-04-25T10:42:34;5.70;;;3.67;;
11203;SDS011;5659;49.408;11.116;2023-04-25T10:45:09;6.28;;;3.92;;
11203;SDS011;5659;49.408;11.116;2023-04-25T10:47:36;6.32;;;3.35;;
11203;SDS011;5659;49.408;11.116;2023-04-25T10:50:05;5.10;;;3.63;;
11203;SDS011;5659;49.408;11.116;2023-04-25T10:52:33;4.95;;;4.05;;
11203;SDS011;5659;49.408;11.116;2023-04-25T10:54:59;4.95;;;3.55;;
11203;SDS011;5659;49.408;11.116;2023-04-25T10:57:32;8.18;;;3.80;;
11203;SDS011;5659;49.408;11.116;2023-04-25T10:59:59;3.90;;;3.03;;
11203;SDS011;5659;49.408;11.116;2023-04-25T11:02:26;6.70;;;3.00;;
11203;SDS011;5659;49.408;11.116;2023-04-25T11:04:55;4.97;;;2.80;;
11203;SDS011;5659;49.408;11.116;2023-04-25T11:09:56;5.47;;;2.95;;
11203;SDS011;5659;49.408;11.116;2023-04-25T11:12:24;4.10;;;2.70;;
11203;SDS011;5659;49.408;11.116;2023-04-25T11:14:50;5.05;;;2.63;;
11203;SDS011;5659;49.408;11.116;2023-04-25T11:17:16;3.17;;;1.98;;
11203;SDS011;5659;49.408;11.116;2023-04-25T11:19:42;4.50;;;2.30;;
11203;SDS011;5659;49.408;11.116;2023-04-25T11:22:09;4.78;;;2.50;;
11203;SDS011;5659;49.408;11.116;2023-04-25T11:24:36;9.80;;;2.30;;
11203;SDS011;5659;49.408;11.116;2023-04-25T11:27:04;4.25;;;2.47;;
11203;SDS011;5659;49.408;11.116;2023-04-25T11:29:31;4.47;;;2.60;;
11203;SDS011;5659;49.408;11.116;2023-04-25T11:31:58;4.93;;;2.10;;
11203;SDS011;5659;49.408;11.116;2023-04-25T11:34:25;4.15;;;1.98;;
11203;SDS011;5659;49.408;11.116;2023-04-25T11:36:51;4.65;;;2.25;;
11203;SDS011;5659;49.408;11.116;2023-04-25T11:39:18;10.45;;;2.33;;
11203;SDS011;5659;49.408;11.116;2023-04-25T11:41:44;4.97;;;2.40;;
11203;SDS011;5659;49.408;11.116;2023-04-25T11:44:10;3.63;;;1.83;;
11203;SDS011;5659;49.408;11.116;2023-04-25T11:46:36;4.40;;;2.10;;
11203;SDS011;5659;49.408;11.116;2023-04-25T11:49:02;2.85;;;1.63;;
11203;SDS011;5659;49.408;11.116;2023-04-25T11:51:29;2.28;;;1.92;;
11203;SDS011;5659;49.408;11.116;2023-04-25T11:53:56;3.45;;;2.10;;
11203;SDS011;5659;49.408;11.116;2023-04-25T11:56:22;2.25;;;1.70;;
11203;SDS011;5659;49.408;11.116;2023-04-25T11:58:58;3.03;;;1.85;;
11203;SDS011;5659;49.408;11.116;2023-04-25T12:01:29;1.98;;;1.80;;
11203;SDS011;5659;49.408;11.116;2023-04-25T12:03:56;4.80;;;1.88;;
11203;SDS011;5659;49.408;11.116;2023-04-25T12:06:25;1.98;;;1.65;;
11203;SDS011;5659;49.408;11.116;2023-04-25T12:08:58;7.90;;;1.90;;
11203;SDS011;5659;49.408;11.116;2023-04-25T12:11:24;3.17;;;1.45;;
11203;SDS011;5659;49.408;11.116;2023-04-25T12:13:54;2.00;;;1.42;;
11203;SDS011;5659;49.408;11.116;2023-04-25T12:16:20;2.42;;;1.40;;
11203;SDS011;5659;49.408;11.116;2023-04-25T12:18:45;6.55;;;1.65;;
11203;SDS011;5659;49.408;11.116;2023-04-25T12:21:12;1.63;;;1.30;;
11203;SDS011;5659;49.408;11.116;2023-04-25T12:23:38;3.33;;;1.42;;
11203;SDS011;5659;49.408;11.116;2023-04-25T12:26:06;4.63;;;1.55;;
11203;SDS011;5659;49.408;11.116;2023-04-25T12:28:32;5.57;;;1.42;;
11203;SDS011;5659;49.408;11.116;2023-04-25T12:33:26;2.08;;;1.70;;
11203;SDS011;5659;49.408;11.116;2023-04-25T12:35:55;4.50;;;1.90;;
11203;SDS011;5659;49.408;11.116;2023-04-25T12:38:29;3.83;;;2.05;;
11203;SDS011;5659;49.408;11.116;2023-04-25T12:40:55;4.13;;;1.80;;
11203;SDS011;5659;49.408;11.116;2023-04-25T12:43:22;5.38;;;1.90;;
11203;SDS011;5659;49.408;11.116;2023-04-25T12:45:48;1.80;;;1.70;;
11203;SDS011;5659;49.408;11.116;2023-04-25T12:48:18;2.10;;;1.60;;
11203;SDS011;5659;49.408;11.116;2023-04-25T12:50:44;4.38;;;1.90;;
11203;SDS011;5659;49.408;11.116;2023-04-25T12:53:13;3.85;;;2.00;;
11203;SDS011;5659;49.408;11.116;2023-04-25T12:55:39;2.22;;;1.90;;
11203;SDS011;5659;49.408;11.116;2023-04-25T12:58:05;5.82;;;1.85;;
11203;SDS011;5659;49.408;11.116;2023-04-25T13:00:31;3.55;;;2.00;;
11203;SDS011;5659;49.408;11.116;2023-04-25T13:02:57;3.17;;;2.13;;
11203;SDS011;5659;49.408;11.116;2023-04-25T13:05:23;2.83;;;1.90;;
11203;SDS011;5659;49.408;11.116;2023-04-25T13:07:50;3.28;;;2.17;;
11203;SDS011;5659;49.408;11.116;2023-04-25T13:10:16;2.00;;;1.80;;
11203;SDS011;5659;49.408;11.116;2023-04-25T13:12:43;3.00;;;2.60;;
11203;SDS011;5659;49.408;11.116;2023-04-25T13:15:09;2.97;;;2.00;;
11203;SDS011;5659;49.408;11.116;2023-04-25T13:17:36;9.23;;;2.30;;
11203;SDS011;5659;49.408;11.116;2023-04-25T13:20:03;2.47;;;1.92;;
11203;SDS011;5659;49.408;11.116;2023-04-25T13:22:31;4.30;;;2.10;;
11203;SDS011;5659;49.408;11.116;2023-04-25T13:24:57;4.40;;;2.30;;
11203;SDS011;5659;49.408;11.116;2023-04-25T13:27:23;14.13;;;2.63;;
11203;SDS011;5659;49.408;11.116;2023-04-25T13:29:49;2.95;;;2.38;;
11203;SDS011;5659;49.408;11.116;2023-04-25T13:32:15;17.80;;;3.08;;
11203;SDS011;5659;49.408;11.116;2023-04-25T13:34:41;2.83;;;2.28;;
11203;SDS011;5659;49.408;11.116;2023-04-25T13:37:07;5.60;;;2.30;;
11203;SDS011;5659;49.408;11.116;2023-04-25T13:39:32;3.05;;;2.13;;
11203;SDS011;5659;49.408;11.116;2023-04-25T13:41:59;7.50;;;2.42;;
11203;SDS011;5659;49.408;11.116;2023-04-25T13:44:25;5.00;;;2.20;;
11203;SDS011;5659;49.408;11.116;2023-04-25T13:46:51;2.13;;;1.90;;
11203;SDS011;5659;49.408;11.116;2023-04-25T13:49:17;3.50;;;2.20;;
11203;SDS011;5659;49.408;11.116;2023-04-25T13:51:43;6.22;;;2.35;;
11203;SDS011;5659;49.408;11.116;2023-04-25T13:54:09;4.50;;;2.45;;
11203;SDS011;5659;49.408;11.116;2023-04-25T13:56:35;4.28;;;2.40;;
11203;SDS011;5659;49.408;11.116;2023-04-25T13:59:01;7.35;;;2.20;;
11203;SDS011;5659;49.408;11.116;2023-04-25T14:01:27;4.15;;;2.10;;
11203;SDS011;5659;49.408;11.116;2023-04-25T14:03:56;3.55;;;2.70;;
11203;SDS011;5659;49.408;11.116;2023-04-25T14:06:21;4.00;;;2.70;;
11203;SDS011;5659;49.408;11.116;2023-04-25T14:08:49;4.82;;;2.67;;
11203;SDS011;5659;49.408;11.116;2023-04-25T14:11:15;4.07;;;3.00;;
11203;SDS011;5659;49.408;11.116;2023-04-25T14:13:43;4.22;;;2.80;;
11203;SDS011;5659;49.408;11.116;2023-04-25T14:16:09;3.78;;;2.50;;
11203;SDS011;5659;49.408;11.116;2023-04-25T14:18:35;3.57;;;2.67;;
11203;SDS011;5659;49.408;11.116;2023-04-25T14:21:01;3.83;;;2.55;;
11203;SDS011;5659;49.408;11.116;2023-04-25T14:23:27;3.77;;;2.63;;
11203;SDS011;5659;49.408;11.116;2023-04-25T14:25:53;4.93;;;2.85;;
11203;SDS011;5659;49.408;11.116;2023-04-25T14:28:19;5.15;;;3.20;;
11203;SDS011;5659;49.408;11.116;2023-04-25T14:30:45;4.18;;;2.97;;
11203;SDS011;5659;49.408;11.116;2023-04-25T14:33:11;7.90;;;3.00;;
11203;SDS011;5659;49.408;11.116;2023-04-25T14:35:38;3.88;;;2.50;;
11203;SDS011;5659;49.408;11.116;2023-04-25T14:38:04;4.53;;;2.78;;
11203;SDS011;5659;49.408;11.116;2023-04-25T14:40:30;6.03;;;2.90;;
11203;SDS011;5659;49.408;11.116;2023-04-25T14:42:56;8.15;;;3.78;;
11203;SDS011;5659;49.408;11.116;2023-04-25T14:45:22;6.27;;;3.17;;
11203;SDS011;5659;49.408;11.116;2023-04-25T14:47:48;5.97;;;3.22;;
11203;SDS011;5659;49.408;11.116;2023-04-25T14:50:14;6.27;;;3.33;;